Time;durP1;ratioP1;P1;durP2;ratioP2;P2;SDS_P1;SDS_P2;PMS_P1;PMS_P2;Temp;Humidity;BMP_temperature;BMP_pressure;BME280_temperature;BME280_humidity;BME280_pressure;Samples;Min_cycle;Max_cycle;Signal;HPM_P1;HPM_P2
2022/07/03 00:01:20;;;;;;;2.20;1.10;;;22.20;70.50;;;;;;5093549;28;20139;-77
2022/07/03 00:03:46;;;;;;;3.17;1.08;;;22.10;70.50;;;;;;5093401;28;20100;-77
2022/07/03 00:06:11;;;;;;;1.55;0.60;;;22.10;70.50;;;;;;5093186;28;20374;-78
2022/07/03 00:08:37;;;;;;;2.08;0.88;;;22.20;70.30;;;;;;5093336;28;20027;-78
2022/07/03 00:11:04;;;;;;;1.35;0.40;;;22.20;70.10;;;;;;5093584;28;20024;-78
2022/07/03 00:13:30;;;;;;;1.10;0.55;;;22.20;70.10;;;;;;5093259;28;20028;-77
2022/07/03 00:15:56;;;;;;;2.58;0.50;;;22.20;70.20;;;;;;5093227;28;20562;-77
2022/07/03 00:18:21;;;;;;;1.90;0.90;;;22.20;70.20;;;;;;5093052;28;20052;-77
2022/07/03 00:21:01;;;;;;;1.77;1.05;;;22.20;70.10;;;;;;5093300;28;20028;-77
2022/07/03 00:23:29;;;;;;;6.00;0.90;;;22.20;70.20;;;;;;5093144;28;20088;-77
2022/07/03 00:25:57;;;;;;;1.55;1.00;;;22.20;70.30;;;;;;5093253;28;20108;-75
2022/07/03 00:28:24;;;;;;;1.75;0.95;;;22.20;70.40;;;;;;5093042;28;20028;-77
2022/07/03 00:30:51;;;;;;;4.55;1.10;;;22.20;70.50;;;;;;5092961;28;20539;-76
2022/07/03 00:33:18;;;;;;;2.10;0.70;;;22.10;70.60;;;;;;5092791;28;20035;-76
2022/07/03 00:35:44;;;;;;;2.97;0.55;;;22.20;70.80;;;;;;5093187;28;20032;-77
2022/07/03 00:38:12;;;;;;;1.58;0.80;;;22.10;70.90;;;;;;5093243;28;20020;-76
2022/07/03 00:40:38;;;;;;;2.17;0.75;;;22.10;71.10;;;;;;5093078;28;20121;-76
2022/07/03 00:43:04;;;;;;;2.92;0.77;;;22.10;71.30;;;;;;5092989;28;20047;-76
2022/07/03 00:45:34;;;;;;;1.70;0.88;;;22.10;71.40;;;;;;5092861;28;20478;-76
2022/07/03 00:48:01;;;;;;;5.05;0.80;;;22.00;71.40;;;;;;5093163;28;20039;-76
2022/07/03 00:50:34;;;;;;;2.38;1.02;;;22.00;71.60;;;;;;5092731;28;20044;-76
2022/07/03 00:53:01;;;;;;;1.38;0.70;;;21.90;71.70;;;;;;5093107;28;20024;-77
2022/07/03 00:55:28;;;;;;;1.52;0.80;;;22.00;71.80;;;;;;5092794;28;20085;-77
2022/07/03 00:57:56;;;;;;;2.05;0.90;;;22.00;71.70;;;;;;5093076;28;20024;-76
2022/07/03 01:00:22;;;;;;;1.88;0.90;;;22.00;71.50;;;;;;5092821;28;20028;-77
2022/07/03 01:02:55;;;;;;;4.88;0.90;;;22.00;71.40;;;;;;5092968;28;20020;-76
2022/07/03 01:05:32;;;;;;;1.92;0.77;;;22.00;71.20;;;;;;5092690;28;20028;-77
2022/07/03 01:08:20;;;;;;;3.40;0.60;;;22.00;71.30;;;;;;5095441;28;20028;-77
2022/07/03 01:10:59;;;;;;;3.22;0.50;;;22.00;71.40;;;;;;5096663;28;20043;-76
2022/07/03 01:13:46;;;;;;;0.77;0.40;;;22.00;71.50;;;;;;5096315;28;20023;-76
2022/07/03 01:16:24;;;;;;;1.83;0.57;;;21.80;71.80;;;;;;5096291;28;20040;-76
2022/07/03 01:19:34;;;;;;;1.63;0.65;;;21.70;71.90;;;;;;5096268;28;20024;-76
2022/07/03 01:22:25;;;;;;;1.85;0.60;;;21.60;72.10;;;;;;5096428;28;20035;-77
2022/07/03 01:25:26;;;;;;;2.22;0.50;;;21.60;72.20;;;;;;5096131;28;20031;-76
2022/07/03 01:28:07;;;;;;;0.70;0.30;;;21.60;72.10;;;;;;5096007;28;20028;-77
2022/07/03 01:30:39;;;;;;;0.80;0.40;;;21.60;72.00;;;;;;5096030;28;20024;-76
2022/07/03 01:33:16;;;;;;;0.82;0.32;;;21.70;72.10;;;;;;5096346;28;20043;-77
2022/07/03 01:36:06;;;;;;;5.10;0.50;;;21.70;71.90;;;;;;5095733;28;20558;-77
2022/07/03 01:38:37;;;;;;;0.60;0.30;;;21.70;71.80;;;;;;5095709;28;20024;-76
2022/07/03 01:41:05;;;;;;;3.25;0.47;;;21.50;72.20;;;;;;5095775;28;20464;-77
2022/07/03 01:43:46;;;;;;;2.92;0.50;;;21.40;72.60;;;;;;5095733;28;20043;-76
2022/07/03 01:46:14;;;;;;;1.83;0.60;;;21.30;73.00;;;;;;5095725;28;20096;-76
2022/07/03 01:48:42;;;;;;;3.13;0.60;;;21.30;73.40;;;;;;5095445;28;20035;-76
2022/07/03 01:51:12;;;;;;;3.88;1.00;;;21.20;73.40;;;;;;5095916;28;20016;-77
2022/07/03 01:53:46;;;;;;;2.95;1.20;;;21.20;73.40;;;;;;5095565;28;20027;-76
2022/07/03 01:56:12;;;;;;;3.20;1.13;;;21.20;74.00;;;;;;5095137;28;20490;-76
2022/07/03 01:58:38;;;;;;;5.50;1.90;;;21.10;74.10;;;;;;5095550;28;20028;-77
2022/07/03 02:01:33;;;;;;;4.10;1.23;;;21.00;74.70;;;;;;5095645;28;20031;-76
2022/07/03 02:04:19;;;;;;;4.90;1.70;;;20.80;75.50;;;;;;5095144;28;20467;-76
2022/07/03 02:06:56;;;;;;;2.70;1.17;;;20.80;75.70;;;;;;5094678;28;20024;-76
2022/07/03 02:09:25;;;;;;;5.13;1.55;;;20.70;75.90;;;;;;5095377;28;20080;-76
2022/07/03 02:11:51;;;;;;;3.70;1.50;;;20.60;76.30;;;;;;5095471;28;20034;-76
2022/07/03 02:14:29;;;;;;;3.70;1.40;;;20.50;76.50;;;;;;5095244;28;20027;-76
2022/07/03 02:17:11;;;;;;;3.60;1.60;;;20.40;76.70;;;;;;5094898;28;20039;-76
2022/07/03 02:19:37;;;;;;;2.38;1.25;;;20.40;76.80;;;;;;5095174;28;20073;-76
2022/07/03 02:22:06;;;;;;;3.75;1.30;;;20.40;76.80;;;;;;5095151;28;20020;-76
2022/07/03 02:24:42;;;;;;;4.50;1.30;;;20.40;76.70;;;;;;5095053;28;20064;-76
2022/07/03 02:27:12;;;;;;;5.43;1.10;;;20.40;76.80;;;;;;5095255;28;20070;-77
2022/07/03 02:30:03;;;;;;;3.50;1.15;;;20.50;76.70;;;;;;5094695;28;20024;-77
2022/07/03 02:32:33;;;;;;;7.78;1.30;;;20.50;76.50;;;;;;5094815;28;20035;-76
2022/07/03 02:35:04;;;;;;;2.10;1.23;;;20.50;76.40;;;;;;5094716;28;20040;-76
2022/07/03 02:37:34;;;;;;;4.07;1.45;;;20.50;76.50;;;;;;5094779;28;20024;-77
2022/07/03 02:40:07;;;;;;;1.95;1.45;;;20.40;76.90;;;;;;5094584;28;20065;-76
2022/07/03 02:42:42;;;;;;;5.72;1.45;;;20.40;77.00;;;;;;5094947;28;20104;-76
2022/07/03 02:45:11;;;;;;;3.38;1.15;;;20.40;77.50;;;;;;5094593;28;20028;-77
2022/07/03 02:47:48;;;;;;;3.90;1.20;;;20.40;76.90;;;;;;5094703;28;20028;-76
2022/07/03 02:50:20;;;;;;;3.15;1.40;;;20.40;76.80;;;;;;5093972;28;20047;-76
2022/07/03 02:52:58;;;;;;;3.05;1.30;;;20.40;76.70;;;;;;5094805;28;20030;-76
2022/07/03 02:55:46;;;;;;;1.35;0.75;;;20.40;76.70;;;;;;5094407;28;20042;-76
2022/07/03 02:58:44;;;;;;;1.58;0.90;;;20.50;76.70;;;;;;5094412;28;20024;-76
2022/07/03 03:01:19;;;;;;;2.40;0.80;;;20.50;76.50;;;;;;5094445;28;20041;-76
2022/07/03 03:04:13;;;;;;;2.10;0.70;;;20.60;76.40;;;;;;5094261;28;20103;-76
2022/07/03 03:06:43;;;;;;;3.63;1.10;;;20.70;76.40;;;;;;5085652;28;20024;-76
2022/07/03 03:09:18;;;;;;;2.00;1.05;;;20.80;76.10;;;;;;5094283;28;20107;-76
2022/07/03 03:11:45;;;;;;;1.27;0.82;;;20.80;75.80;;;;;;5094061;28;20020;-77
2022/07/03 03:14:13;;;;;;;1.80;0.60;;;20.90;75.70;;;;;;5093976;28;20482;-76
2022/07/03 03:16:52;;;;;;;1.83;0.77;;;20.90;75.70;;;;;;5094295;28;20049;-76
2022/07/03 03:19:23;;;;;;;2.45;0.68;;;21.00;75.60;;;;;;5093948;28;20046;-76
2022/07/03 03:22:25;;;;;;;4.18;0.90;;;20.90;75.50;;;;;;5093765;28;20034;-76
2022/07/03 03:24:51;;;;;;;3.20;0.82;;;21.00;75.40;;;;;;5094065;28;20047;-76
2022/07/03 03:27:18;;;;;;;2.10;0.63;;;21.00;75.20;;;;;;5093844;28;20028;-76
2022/07/03 03:29:44;;;;;;;4.63;0.80;;;21.00;75.00;;;;;;5093254;28;20024;-76
2022/07/03 03:32:11;;;;;;;3.63;1.00;;;21.00;74.90;;;;;;5093912;28;20115;-76
2022/07/03 03:34:40;;;;;;;2.85;1.25;;;21.00;74.90;;;;;;5093881;28;20039;-76
2022/07/03 03:37:06;;;;;;;5.22;0.73;;;20.90;75.10;;;;;;5093602;28;20024;-77
2022/07/03 03:39:31;;;;;;;2.38;0.73;;;20.90;75.20;;;;;;5093611;28;20024;-76
2022/07/03 03:41:58;;;;;;;1.98;0.70;;;20.90;75.00;;;;;;5093568;28;20125;-76
2022/07/03 03:44:24;;;;;;;1.23;0.55;;;20.90;74.70;;;;;;5093387;28;20028;-77
2022/07/03 03:46:50;;;;;;;2.00;0.70;;;20.90;74.70;;;;;;5093405;28;20028;-76
2022/07/03 03:49:16;;;;;;;1.85;0.57;;;20.90;74.90;;;;;;5093491;28;20044;-76
2022/07/03 03:51:42;;;;;;;2.08;0.57;;;20.90;75.10;;;;;;5093624;28;20528;-77
2022/07/03 03:54:07;;;;;;;4.25;0.88;;;20.90;75.30;;;;;;5093524;28;20066;-76
2022/07/03 03:56:33;;;;;;;3.78;1.17;;;20.90;75.60;;;;;;5093196;28;20471;-76
2022/07/03 03:58:58;;;;;;;2.40;0.90;;;20.90;75.90;;;;;;5093278;28;20022;-76
2022/07/03 04:01:24;;;;;;;4.30;0.68;;;20.90;76.30;;;;;;5093189;28;20031;-76
2022/07/03 04:03:49;;;;;;;1.92;0.80;;;20.90;76.50;;;;;;5093673;28;20364;-76
2022/07/03 04:06:15;;;;;;;1.60;0.73;;;20.90;76.60;;;;;;5093369;28;20016;-76
2022/07/03 04:08:40;;;;;;;2.20;1.30;;;20.90;76.80;;;;;;5093182;28;20379;-76
2022/07/03 04:11:06;;;;;;;2.50;0.73;;;20.90;77.10;;;;;;5093331;28;20107;-76
2022/07/03 04:13:32;;;;;;;1.75;0.75;;;20.90;77.40;;;;;;5093207;28;20367;-76
2022/07/03 04:15:57;;;;;;;2.40;1.05;;;20.90;78.20;;;;;;5093397;28;20039;-76
2022/07/03 04:18:23;;;;;;;4.57;1.50;;;20.90;77.90;;;;;;5093441;28;20020;-77
2022/07/03 04:20:49;;;;;;;4.80;1.35;;;20.90;78.20;;;;;;5093483;28;20028;-76
2022/07/03 04:23:15;;;;;;;3.78;1.50;;;20.90;78.40;;;;;;5093212;28;20024;-76
2022/07/03 04:25:40;;;;;;;3.38;1.42;;;20.90;78.70;;;;;;5093090;28;20471;-76
2022/07/03 04:28:06;;;;;;;3.08;1.23;;;20.80;78.80;;;;;;5093086;28;20028;-76
2022/07/03 04:30:31;;;;;;;2.15;1.27;;;20.80;79.00;;;;;;5093297;28;20434;-77
2022/07/03 04:32:57;;;;;;;2.90;1.50;;;20.80;79.10;;;;;;5093262;28;20020;-76
2022/07/03 04:35:23;;;;;;;2.80;1.40;;;20.90;79.10;;;;;;5093326;28;20032;-76
2022/07/03 04:37:48;;;;;;;3.20;1.67;;;20.80;79.10;;;;;;5092942;28;20025;-76
2022/07/03 04:40:14;;;;;;;1.90;1.17;;;20.80;79.10;;;;;;5093330;28;20131;-76
2022/07/03 04:42:39;;;;;;;2.78;1.20;;;20.80;79.20;;;;;;5096865;28;20419;-76
2022/07/03 04:45:06;;;;;;;1.83;0.77;;;20.80;79.30;;;;;;5096850;28;20077;-76
2022/07/03 04:47:32;;;;;;;2.67;1.00;;;20.80;79.30;;;;;;5096545;28;20479;-76
2022/07/03 04:49:58;;;;;;;2.60;1.30;;;20.80;79.00;;;;;;5096938;28;20052;-76
2022/07/03 04:52:24;;;;;;;2.13;1.08;;;20.80;78.80;;;;;;5096920;28;20400;-76
2022/07/03 04:54:49;;;;;;;3.13;0.80;;;20.90;78.50;;;;;;5096660;28;20059;-76
2022/07/03 04:57:15;;;;;;;2.35;1.17;;;20.80;78.10;;;;;;5096623;28;20125;-76
2022/07/03 04:59:40;;;;;;;1.52;0.70;;;20.80;77.80;;;;;;5096493;28;20034;-76
2022/07/03 05:02:06;;;;;;;1.88;0.77;;;20.80;77.50;;;;;;5097018;28;20394;-76
2022/07/03 05:04:32;;;;;;;1.48;0.90;;;20.80;78.10;;;;;;5096709;28;20024;-76
2022/07/03 05:06:57;;;;;;;2.17;1.00;;;20.80;77.50;;;;;;5096352;28;20032;-76
2022/07/03 05:09:23;;;;;;;2.72;1.40;;;20.80;77.60;;;;;;5096120;28;20020;-76
2022/07/03 05:11:48;;;;;;;4.53;1.90;;;20.80;77.80;;;;;;5096377;28;20024;-76
2022/07/03 05:14:14;;;;;;;5.03;1.70;;;20.80;78.70;;;;;;5096085;28;20062;-76
2022/07/03 05:16:40;;;;;;;4.57;1.67;;;20.70;78.90;;;;;;5096241;28;20386;-76
2022/07/03 05:19:05;;;;;;;5.13;1.52;;;20.70;79.20;;;;;;5096218;28;20106;-76
2022/07/03 05:21:31;;;;;;;3.88;1.38;;;20.60;79.80;;;;;;5096260;28;20055;-76
2022/07/03 05:23:57;;;;;;;3.65;1.60;;;20.50;79.90;;;;;;5096496;28;20047;-76
2022/07/03 05:26:23;;;;;;;5.90;1.77;;;20.50;80.60;;;;;;5096382;28;20016;-76
2022/07/03 05:28:49;;;;;;;4.80;1.50;;;20.60;81.10;;;;;;5095954;28;20428;-76
2022/07/03 05:31:15;;;;;;;5.60;1.42;;;20.50;81.40;;;;;;5096249;28;20048;-76
2022/07/03 05:33:40;;;;;;;3.60;1.50;;;20.50;81.60;;;;;;5095955;28;20031;-76
2022/07/03 05:36:06;;;;;;;3.88;1.52;;;20.50;81.80;;;;;;5096114;28;20104;-76
2022/07/03 05:41:18;;;;;;;3.40;1.30;;;20.60;82.50;;;;;;5095844;28;20027;-76
2022/07/03 05:43:43;;;;;;;3.97;1.50;;;20.60;83.00;;;;;;5096004;28;20047;-76
2022/07/03 05:46:09;;;;;;;4.30;1.50;;;20.50;83.30;;;;;;5096029;28;20071;-76
2022/07/03 05:48:35;;;;;;;4.35;1.80;;;20.50;83.40;;;;;;5095658;28;20368;-76
2022/07/03 05:51:01;;;;;;;4.57;2.40;;;20.40;83.90;;;;;;5095893;28;20490;-76
2022/07/03 05:53:27;;;;;;;5.38;2.03;;;20.40;84.20;;;;;;5094925;28;20035;-76
2022/07/03 05:55:52;;;;;;;4.90;1.98;;;20.40;84.40;;;;;;5095501;28;20031;-76
2022/07/03 05:58:18;;;;;;;4.65;2.00;;;20.30;84.50;;;;;;5095738;28;20016;-76
2022/07/03 06:00:44;;;;;;;3.50;1.60;;;20.20;84.50;;;;;;5095663;28;20478;-76
2022/07/03 06:03:09;;;;;;;3.28;1.83;;;20.20;84.60;;;;;;5095542;28;20031;-76
2022/07/03 06:05:35;;;;;;;5.32;1.42;;;20.20;84.50;;;;;;5095386;28;20115;-76
2022/07/03 06:08:01;;;;;;;2.95;1.52;;;20.20;84.20;;;;;;5095351;28;20024;-76
2022/07/03 06:10:28;;;;;;;4.85;2.08;;;20.20;83.90;;;;;;5094954;28;20028;-76
2022/07/03 06:12:54;;;;;;;1.45;1.00;;;20.20;84.20;;;;;;5095451;28;20020;-75
2022/07/03 06:15:20;;;;;;;3.33;1.15;;;20.30;84.30;;;;;;5095055;28;20181;-76
2022/07/03 06:17:45;;;;;;;5.95;1.23;;;20.30;84.10;;;;;;5095166;28;20016;-76
2022/07/03 06:20:12;;;;;;;4.55;1.10;;;20.40;84.20;;;;;;5095269;28;20109;-76
2022/07/03 06:22:38;;;;;;;3.25;1.00;;;20.40;84.10;;;;;;5095091;28;20103;-76
2022/07/03 06:25:05;;;;;;;3.03;0.77;;;20.50;84.10;;;;;;5094965;28;20016;-76
2022/07/03 06:27:31;;;;;;;4.03;1.10;;;20.50;84.20;;;;;;5094862;28;20024;-77
2022/07/03 06:29:57;;;;;;;4.55;0.90;;;20.60;84.60;;;;;;5095055;28;20026;-76
2022/07/03 06:32:22;;;;;;;3.03;0.82;;;20.60;84.90;;;;;;5094505;28;20027;-76
2022/07/03 06:34:48;;;;;;;4.20;0.90;;;20.70;84.80;;;;;;5094921;28;20050;-76
2022/07/03 06:37:14;;;;;;;3.38;0.70;;;20.80;84.80;;;;;;5095023;28;20466;-76
2022/07/03 06:39:40;;;;;;;2.90;0.68;;;20.80;84.60;;;;;;5094588;28;20156;-76
2022/07/03 06:42:06;;;;;;;6.68;1.10;;;20.90;84.70;;;;;;5094695;28;20031;-76
2022/07/03 06:44:32;;;;;;;2.15;0.63;;;20.90;84.50;;;;;;5094766;28;20016;-76
2022/07/03 06:46:58;;;;;;;4.72;0.85;;;21.00;84.60;;;;;;5094601;28;20107;-76
2022/07/03 06:49:24;;;;;;;3.10;0.50;;;21.00;84.70;;;;;;5094369;28;20123;-76
2022/07/03 06:51:49;;;;;;;2.65;0.40;;;21.10;84.80;;;;;;5094724;28;20024;-76
2022/07/03 06:54:15;;;;;;;5.40;1.23;;;21.20;84.90;;;;;;5094222;28;20424;-76
2022/07/03 06:56:42;;;;;;;2.88;0.40;;;21.20;83.90;;;;;;5094131;28;20028;-76
2022/07/03 06:59:08;;;;;;;3.40;0.40;;;21.20;81.90;;;;;;5094654;28;20020;-76
2022/07/03 07:01:33;;;;;;;5.20;0.52;;;21.20;81.70;;;;;;5094443;28;20176;-76
2022/07/03 07:03:59;;;;;;;2.45;0.30;;;21.30;82.20;;;;;;5093560;28;20023;-76
2022/07/03 07:06:25;;;;;;;2.92;0.30;;;21.40;82.20;;;;;;5093936;28;20082;-76
2022/07/03 07:08:50;;;;;;;3.20;0.30;;;21.50;82.70;;;;;;5094303;28;20479;-76
2022/07/03 07:11:16;;;;;;;3.15;0.50;;;21.50;81.00;;;;;;5094382;28;20391;-76
2022/07/03 07:13:41;;;;;;;2.78;0.32;;;21.60;80.10;;;;;;5094137;28;20112;-76
2022/07/03 07:16:07;;;;;;;2.20;0.25;;;21.70;79.90;;;;;;5094022;28;20028;-76
2022/07/03 07:18:34;;;;;;;2.70;0.40;;;21.70;78.50;;;;;;5094110;28;20024;-76
2022/07/03 07:20:59;;;;;;;2.72;0.30;;;21.70;77.40;;;;;;5094036;28;20020;-76
2022/07/03 07:23:25;;;;;;;2.63;0.20;;;21.80;78.20;;;;;;5093762;28;20468;-76
2022/07/03 07:25:50;;;;;;;2.55;0.40;;;21.80;78.20;;;;;;5094200;28;20488;-76
2022/07/03 07:28:16;;;;;;;1.95;0.30;;;21.90;79.60;;;;;;5093419;28;20051;-77
2022/07/03 07:30:42;;;;;;;2.47;0.30;;;21.90;80.50;;;;;;5093730;28;20028;-76
2022/07/03 07:33:08;;;;;;;4.65;0.40;;;21.90;80.40;;;;;;5093830;28;20040;-76
2022/07/03 07:35:34;;;;;;;3.25;0.43;;;22.00;80.10;;;;;;5093659;28;20039;-76
2022/07/03 07:37:59;;;;;;;3.15;0.88;;;22.00;80.60;;;;;;5093536;28;20108;-76
2022/07/03 07:40:25;;;;;;;3.42;0.50;;;22.00;81.10;;;;;;5093743;28;20028;-76
2022/07/03 07:42:50;;;;;;;6.93;0.57;;;22.10;80.90;;;;;;5093766;28;20374;-76
2022/07/03 07:45:16;;;;;;;4.65;0.40;;;22.10;81.00;;;;;;5093304;28;20020;-76
2022/07/03 07:47:42;;;;;;;4.63;0.30;;;22.00;80.90;;;;;;5093569;28;20036;-76
2022/07/03 07:50:08;;;;;;;5.28;0.50;;;22.10;81.10;;;;;;5093019;28;20055;-76
2022/07/03 07:52:34;;;;;;;3.80;0.40;;;22.10;80.90;;;;;;5093525;28;20030;-76
2022/07/03 07:54:59;;;;;;;3.83;0.30;;;22.20;80.60;;;;;;5093276;28;20028;-76
2022/07/03 07:57:25;;;;;;;3.67;0.40;;;22.20;79.60;;;;;;5093511;28;20035;-77
2022/07/03 07:59:51;;;;;;;6.03;0.60;;;22.30;79.70;;;;;;5093561;28;20024;-77
2022/07/03 08:07:44;;;;;;;6.25;0.20;;;22.40;77.00;;;;;;5093308;28;20035;-77
2022/07/03 08:10:10;;;;;;;4.60;0.30;;;22.40;76.50;;;;;;5093315;28;20028;-76
2022/07/03 08:12:36;;;;;;;5.07;0.50;;;22.50;77.10;;;;;;5093349;28;20051;-76
2022/07/03 08:15:01;;;;;;;3.58;0.30;;;22.50;76.10;;;;;;5093019;28;20517;-77
2022/07/03 08:17:27;;;;;;;1.48;0.17;;;22.60;76.70;;;;;;5097066;28;20016;-76
2022/07/03 08:19:53;;;;;;;4.93;0.30;;;22.70;76.80;;;;;;5097408;28;20531;-76
2022/07/03 08:22:18;;;;;;;2.95;0.30;;;22.80;74.80;;;;;;5097528;28;20486;-77
2022/07/03 08:24:44;;;;;;;4.03;0.40;;;22.80;74.90;;;;;;5097331;28;20017;-76
2022/07/03 08:27:09;;;;;;;3.10;0.30;;;22.90;74.80;;;;;;5097535;28;20103;-76
2022/07/03 08:29:35;;;;;;;4.20;0.60;;;22.90;75.20;;;;;;5097216;28;20028;-77
2022/07/03 08:32:00;;;;;;;3.90;0.47;;;22.90;75.50;;;;;;5097003;28;20032;-76
2022/07/03 08:34:26;;;;;;;5.65;0.30;;;22.90;76.20;;;;;;5097200;28;20020;-76
2022/07/03 08:36:52;;;;;;;3.00;0.30;;;23.00;76.30;;;;;;5097151;28;20367;-76
2022/07/03 08:39:17;;;;;;;2.20;0.30;;;23.10;74.70;;;;;;5097245;28;20065;-76
2022/07/03 08:41:43;;;;;;;4.68;1.05;;;23.20;75.70;;;;;;5097080;28;20097;-77
2022/07/03 08:44:11;;;;;;;5.65;0.60;;;23.20;75.40;;;;;;5096583;28;20020;-76
2022/07/03 08:46:38;;;;;;;7.97;0.60;;;23.10;75.10;;;;;;5096745;28;20040;-76
2022/07/03 08:49:05;;;;;;;2.38;0.50;;;23.00;76.10;;;;;;5096755;28;20043;-76
2022/07/03 08:51:31;;;;;;;2.95;0.40;;;23.10;76.00;;;;;;5096742;28;20387;-76
2022/07/03 08:54:01;;;;;;;2.72;0.30;;;23.20;75.40;;;;;;5096804;28;20067;-76
2022/07/03 08:56:27;;;;;;;4.60;0.30;;;23.20;75.00;;;;;;5096345;28;20047;-76
2022/07/03 08:58:53;;;;;;;1.92;0.20;;;23.30;74.60;;;;;;5096476;28;20421;-76
2022/07/03 09:01:19;;;;;;;1.83;0.45;;;23.40;74.20;;;;;;5096440;28;20028;-76
2022/07/03 09:03:46;;;;;;;1.67;0.30;;;23.40;71.70;;;;;;5096704;28;20054;-76
2022/07/03 09:06:14;;;;;;;2.33;0.30;;;23.40;70.60;;;;;;5096295;28;20027;-76
2022/07/03 09:08:41;;;;;;;2.53;0.22;;;23.50;70.10;;;;;;5096109;28;20100;-76
2022/07/03 09:11:07;;;;;;;1.27;0.13;;;23.50;70.50;;;;;;5096189;28;20035;-76
2022/07/03 09:13:33;;;;;;;1.48;0.20;;;23.60;69.80;;;;;;5096490;28;20026;-77
2022/07/03 09:15:58;;;;;;;1.63;0.20;;;23.60;69.60;;;;;;5096057;28;20039;-77
2022/07/03 09:18:42;;;;;;;1.05;0.20;;;23.70;69.00;;;;;;5096051;28;20078;-76
2022/07/03 09:21:08;;;;;;;1.50;0.20;;;23.70;68.60;;;;;;5096107;28;20028;-76
2022/07/03 09:23:39;;;;;;;2.88;0.20;;;23.90;68.80;;;;;;5096053;28;20016;-77
2022/07/03 09:26:06;;;;;;;2.75;0.20;;;23.90;68.30;;;;;;5096402;28;20024;-76
2022/07/03 09:29:02;;;;;;;2.15;0.20;;;24.00;69.00;;;;;;5094906;28;20475;-76
2022/07/03 09:31:30;;;;;;;4.72;0.43;;;24.10;70.00;;;;;;5083514;28;20055;-76
2022/07/03 09:34:02;;;;;;;4.93;0.20;;;24.10;69.50;;;;;;5095801;28;20403;-76
2022/07/03 09:36:39;;;;;;;3.88;0.20;;;24.10;70.90;;;;;;5096056;28;20081;-76
2022/07/03 09:39:26;;;;;;;3.65;0.40;;;24.20;71.50;;;;;;5096078;28;20107;-76
2022/07/03 09:42:11;;;;;;;2.60;0.30;;;24.20;71.30;;;;;;5096040;28;20024;-76
2022/07/03 09:44:41;;;;;;;4.22;0.32;;;24.30;70.00;;;;;;5095310;28;20027;-77
2022/07/03 09:47:17;;;;;;;1.83;0.30;;;24.40;70.20;;;;;;5095759;28;20387;-77
2022/07/03 09:49:57;;;;;;;3.08;0.30;;;24.30;70.10;;;;;;5095407;28;20048;-77
2022/07/03 09:52:42;;;;;;;2.67;0.50;;;24.30;71.30;;;;;;5095456;28;20043;-77
2022/07/03 09:55:12;;;;;;;3.55;0.80;;;24.10;71.40;;;;;;5095751;28;20032;-77
2022/07/03 09:57:49;;;;;;;2.92;0.30;;;24.10;72.40;;;;;;5095357;28;20379;-77
2022/07/03 10:00:21;;;;;;;2.20;0.30;;;24.00;72.90;;;;;;5095657;28;20045;-78
2022/07/03 10:03:01;;;;;;;2.67;0.30;;;24.10;72.00;;;;;;5095170;28;20020;-78
2022/07/03 10:05:29;;;;;;;1.55;0.25;;;24.10;71.70;;;;;;5095524;28;20036;-78
2022/07/03 10:08:12;;;;;;;3.92;0.30;;;24.30;72.60;;;;;;5094924;28;20069;-78
2022/07/03 10:10:40;;;;;;;4.05;0.35;;;24.40;74.60;;;;;;5095529;28;20028;-78
2022/07/03 10:13:06;;;;;;;2.17;0.43;;;24.40;72.50;;;;;;5095503;28;20020;-78
2022/07/03 10:15:37;;;;;;;3.10;0.30;;;24.40;71.60;;;;;;5095116;28;20054;-78
2022/07/03 10:18:05;;;;;;;3.37;0.33;;;24.50;70.60;;;;;;5095217;28;20069;-78
2022/07/03 10:20:35;;;;;;;1.00;0.20;;;24.50;68.90;;;;;;5094910;28;20028;-78
2022/07/03 10:23:02;;;;;;;1.17;0.30;;;24.40;70.30;;;;;;5095022;28;20055;-78
2022/07/03 10:25:30;;;;;;;2.80;0.20;;;24.50;70.80;;;;;;5095156;28;20099;-78
2022/07/03 10:27:56;;;;;;;1.83;0.30;;;24.60;70.80;;;;;;5094772;28;20020;-78
2022/07/03 10:30:23;;;;;;;2.97;0.55;;;24.60;71.10;;;;;;5094827;28;20409;-78
2022/07/03 10:32:52;;;;;;;2.28;0.32;;;24.50;71.00;;;;;;5094724;28;20069;-78
2022/07/03 10:35:22;;;;;;;1.75;0.20;;;24.50;70.60;;;;;;5094791;28;20020;-78
2022/07/03 10:38:14;;;;;;;4.22;0.20;;;24.60;68.80;;;;;;5094389;28;20459;-78
2022/07/03 10:46:29;;;;;;;2.13;0.30;;;24.80;69.70;;;;;;5095057;28;20042;-78
2022/07/03 10:48:55;;;;;;;1.58;0.38;;;24.70;69.20;;;;;;5094672;28;20044;-78
2022/07/03 10:51:21;;;;;;;4.97;0.40;;;24.60;69.70;;;;;;5094748;28;20042;-78
2022/07/03 10:53:47;;;;;;;2.45;0.30;;;24.60;71.10;;;;;;5094547;28;20091;-78
2022/07/03 10:56:14;;;;;;;2.50;0.40;;;24.70;68.90;;;;;;5094354;28;20164;-78
2022/07/03 10:58:55;;;;;;;3.05;0.47;;;24.60;68.90;;;;;;5094632;28;20024;-78
2022/07/03 11:01:28;;;;;;;1.65;0.20;;;24.70;70.30;;;;;;5094565;28;20032;-78
2022/07/03 11:03:57;;;;;;;1.88;0.30;;;24.80;70.30;;;;;;5094618;28;20020;-78
2022/07/03 11:06:43;;;;;;;4.03;0.38;;;24.90;68.30;;;;;;5094452;28;20024;-78
2022/07/03 11:09:13;;;;;;;2.28;0.30;;;24.90;68.30;;;;;;5083734;28;20419;-78
2022/07/03 11:11:55;;;;;;;2.78;0.20;;;25.00;68.20;;;;;;5094473;28;20020;-78
2022/07/03 11:14:25;;;;;;;1.67;0.20;;;25.00;66.80;;;;;;5094365;28;20074;-78
2022/07/03 11:17:16;;;;;;;1.58;0.20;;;25.00;66.80;;;;;;5094381;28;20115;-78
2022/07/03 11:19:41;;;;;;;3.33;0.47;;;25.10;66.90;;;;;;5094136;28;20567;-78
2022/07/03 11:22:16;;;;;;;1.80;0.20;;;25.20;67.40;;;;;;5094134;28;20107;-78
2022/07/03 11:24:44;;;;;;;2.05;0.10;;;25.20;64.40;;;;;;5094012;28;20077;-78
2022/07/03 11:27:24;;;;;;;1.45;0.10;;;25.10;64.80;;;;;;5094187;28;20469;-78
2022/07/03 11:29:55;;;;;;;3.45;0.30;;;24.90;64.70;;;;;;5093875;28;20081;-78
2022/07/03 11:32:46;;;;;;;3.75;0.25;;;24.60;66.00;;;;;;5094157;28;20024;-78
2022/07/03 11:35:42;;;;;;;2.38;0.20;;;24.60;66.10;;;;;;5093962;28;20455;-78
2022/07/03 11:38:08;;;;;;;1.67;0.25;;;24.50;67.00;;;;;;5093679;28;20157;-78
2022/07/03 11:40:40;;;;;;;0.93;0.20;;;24.40;68.00;;;;;;5093923;28;20115;-78
2022/07/03 11:43:06;;;;;;;2.30;0.28;;;24.30;68.90;;;;;;5093972;28;20024;-78
2022/07/03 11:45:32;;;;;;;2.45;0.30;;;24.50;69.80;;;;;;5093856;28;20490;-78
2022/07/03 11:47:58;;;;;;;1.90;0.20;;;24.70;68.90;;;;;;5093515;28;20024;-78
2022/07/03 11:50:41;;;;;;;1.50;0.10;;;24.80;66.50;;;;;;5092916;28;20394;-78
2022/07/03 11:53:16;;;;;;;1.60;0.20;;;25.00;66.90;;;;;;5093350;28;20032;-78
2022/07/03 11:55:53;;;;;;;1.02;0.10;;;25.10;64.00;;;;;;5093009;28;20078;-78
2022/07/03 11:58:19;;;;;;;1.25;0.20;;;25.10;62.70;;;;;;5092988;28;20032;-78
2022/07/03 12:00:45;;;;;;;0.95;0.10;;;25.20;61.40;;;;;;5093442;28;20206;-78
2022/07/03 12:03:15;;;;;;;0.65;0.10;;;25.30;62.30;;;;;;5093339;28;20113;-78
2022/07/03 12:05:52;;;;;;;2.80;0.20;;;25.30;62.00;;;;;;5092838;28;20032;-78
2022/07/03 12:08:30;;;;;;;0.90;0.13;;;25.40;63.10;;;;;;5092974;28;20490;-78
2022/07/03 12:11:22;;;;;;;1.17;0.10;;;25.60;64.00;;;;;;5093445;28;20411;-78
2022/07/03 12:13:50;;;;;;;2.60;0.13;;;25.80;64.50;;;;;;5089748;28;20082;-78
2022/07/03 12:16:15;;;;;;;4.88;0.20;;;25.70;61.30;;;;;;5092987;28;20474;-76
2022/07/03 12:18:46;;;;;;;2.85;0.20;;;25.70;61.30;;;;;;5092875;28;20024;-76
2022/07/03 12:21:13;;;;;;;0.68;0.20;;;25.70;63.30;;;;;;5093265;28;20021;-77
2022/07/03 12:23:50;;;;;;;1.92;0.38;;;25.80;62.00;;;;;;5093232;28;20051;-77
2022/07/03 12:26:28;;;;;;;1.58;0.10;;;25.70;60.40;;;;;;5093096;28;20027;-77
2022/07/03 12:28:55;;;;;;;2.15;0.20;;;25.60;61.00;;;;;;5093151;28;20031;-77
2022/07/03 12:31:21;;;;;;;1.15;0.10;;;25.60;61.30;;;;;;5092737;28;20020;-77
2022/07/03 12:33:47;;;;;;;0.63;0.10;;;25.60;61.10;;;;;;5092811;28;20031;-77
2022/07/03 12:36:12;;;;;;;1.00;0.20;;;25.70;61.20;;;;;;5093123;28;20413;-77
2022/07/03 12:38:39;;;;;;;1.05;0.15;;;25.70;60.30;;;;;;5093130;28;20020;-77
2022/07/03 12:41:10;;;;;;;1.63;0.10;;;25.70;60.70;;;;;;5092746;28;20036;-77
2022/07/03 12:43:40;;;;;;;1.17;0.20;;;25.80;60.60;;;;;;5092829;28;20497;-77
2022/07/03 12:46:19;;;;;;;1.70;0.20;;;25.80;59.70;;;;;;5093242;28;20111;-77
2022/07/03 12:48:47;;;;;;;0.70;0.10;;;25.80;60.20;;;;;;5092742;28;20452;-77
2022/07/03 12:51:13;;;;;;;3.13;0.30;;;25.90;60.90;;;;;;5092939;28;20540;-77
2022/07/03 12:53:38;;;;;;;3.50;0.30;;;25.90;61.20;;;;;;5093081;28;20025;-77
2022/07/03 12:56:06;;;;;;;1.17;0.20;;;25.90;62.40;;;;;;5092359;28;20038;-78
2022/07/03 13:01:25;;;;;;;1.15;0.10;;;25.80;60.40;;;;;;5092968;28;20040;-78
2022/07/03 13:03:50;;;;;;;;;;;25.70;59.40;;;;;;5095872;28;20032;-78
2022/07/03 13:06:16;;;;;;;2.00;0.10;;;25.60;60.60;;;;;;5096334;28;19949;-78
2022/07/03 13:08:56;;;;;;;1.17;0.30;;;25.50;61.80;;;;;;5096498;28;20024;-78
2022/07/03 13:11:41;;;;;;;2.05;0.10;;;25.40;61.00;;;;;;5096225;28;20028;-77
2022/07/03 13:14:10;;;;;;;2.13;0.30;;;25.30;61.60;;;;;;5096516;28;20016;-78
2022/07/03 13:16:56;;;;;;;1.67;0.13;;;25.10;61.20;;;;;;5096215;28;20060;-78
2022/07/03 13:19:24;;;;;;;2.53;0.40;;;24.90;61.20;;;;;;5095693;28;20107;-78